Time;durP1;ratioP1;P1;durP2;ratioP2;P2;SDS_P1;SDS_P2;PMS_P1;PMS_P2;Temp;Humidity;BMP_temperature;BMP_pressure;BME280_temperature;BME280_humidity;BME280_pressure;Samples;Min_cycle;Max_cycle;Signal;HPM_P1;HPM_P2
2021/01/28 00:01:14;;;;;;;59.23;31.07;;;;;;;-1.06;80.76;98449.19;124309;1105;104262;-75
2021/01/28 00:03:41;;;;;;;66.93;33.87;;;;;;;-1.05;81.48;98451.73;124025;1109;104223;-75
2021/01/28 00:06:09;;;;;;;65.13;30.07;;;;;;;-1.01;81.91;98449.02;124316;1105;104214;-73
2021/01/28 00:08:38;;;;;;;62.40;31.07;;;;;;;-1.01;81.88;98449.85;124270;1105;104192;-73
2021/01/28 00:11:05;;;;;;;62.57;31.30;;;;;;;-1.03;81.83;98441.25;124245;1105;104354;-74
2021/01/28 00:13:32;;;;;;;56.77;28.05;;;;;;;-1.05;81.18;98437.84;124194;1105;104185;-74
2021/01/28 00:15:59;;;;;;;59.03;30.60;;;;;;;-1.07;81.22;98432.66;124235;1105;104185;-72
2021/01/28 00:18:27;;;;;;;52.23;27.77;;;;;;;-1.06;81.26;98438.75;124268;1105;104158;-73
2021/01/28 00:20:54;;;;;;;63.17;27.57;;;;;;;-1.11;81.52;98438.06;124266;1105;104312;-72
2021/01/28 00:23:21;;;;;;;54.53;26.23;;;;;;;-1.16;80.70;98438.20;124309;1105;104309;-73
2021/01/28 00:25:49;;;;;;;54.03;26.43;;;;;;;-1.20;81.76;98440.08;124244;1105;104264;-72
2021/01/28 00:28:20;;;;;;;51.30;25.60;;;;;;;-1.19;81.94;98440.91;124303;1105;104268;-74
2021/01/28 00:30:51;;;;;;;58.43;29.53;;;;;;;-1.20;81.57;98436.59;124217;1105;104333;-73
2021/01/28 00:33:22;;;;;;;63.97;29.57;;;;;;;-1.17;81.50;98435.66;124495;1106;104618;-72
2021/01/28 00:35:57;;;;;;;56.63;29.70;;;;;;;-1.14;81.75;98432.94;124302;1105;104264;-74
2021/01/28 00:38:32;;;;;;;63.30;30.67;;;;;;;-1.15;81.63;98437.30;124222;1105;104625;-74
2021/01/28 00:41:05;;;;;;;53.43;25.10;;;;;;;-1.15;81.87;98432.08;124309;1105;104252;-75
2021/01/28 00:43:33;;;;;;;54.85;26.95;;;;;;;-1.22;80.57;98423.63;124018;1105;104258;-73
2021/01/28 00:46:00;;;;;;;55.03;25.03;;;;;;;-1.25;81.22;98431.55;124294;1105;104159;-73
2021/01/28 00:48:30;;;;;;;50.53;23.30;;;;;;;-1.28;81.13;98433.43;124358;1105;104283;-73
2021/01/28 00:50:59;;;;;;;58.93;29.47;;;;;;;-1.29;81.77;98429.11;124392;1105;104197;-74
2021/01/28 00:53:26;;;;;;;47.67;22.07;;;;;;;-1.27;80.89;98425.53;124261;1105;104217;-71
2021/01/28 00:55:53;;;;;;;50.73;26.50;;;;;;;-1.26;81.24;98432.45;124147;1105;104249;-73
2021/01/28 00:58:24;;;;;;;58.35;29.50;;;;;;;-1.25;81.88;98431.55;124242;1105;104178;-72
2021/01/28 01:00:52;;;;;;;53.80;25.60;;;;;;;-1.26;81.88;98424.63;124208;1105;104159;-73
2021/01/28 01:03:24;;;;;;;55.13;26.90;;;;;;;-1.27;81.43;98424.70;124186;1105;104160;-73
2021/01/28 01:05:52;;;;;;;57.00;26.13;;;;;;;-1.28;81.62;98420.38;124249;1105;104168;-73
2021/01/28 01:08:22;;;;;;;59.37;29.87;;;;;;;-1.30;81.21;98414.36;124144;1105;104210;-71
2021/01/28 01:10:56;;;;;;;60.50;30.40;;;;;;;-1.30;81.11;98412.59;124226;1105;104166;-71
2021/01/28 01:13:35;;;;;;;55.12;25.55;;;;;;;-1.29;80.95;98401.25;124294;1105;104184;-70
2021/01/28 01:16:06;;;;;;;54.13;26.30;;;;;;;-1.32;81.81;98409.19;124305;1105;104217;-71
2021/01/28 01:18:37;;;;;;;47.43;22.00;;;;;;;-1.35;81.69;98404.06;124276;1105;104210;-71
2021/01/28 01:21:07;;;;;;;60.27;29.50;;;;;;;-1.36;81.43;98403.23;124163;1105;104386;-71
2021/01/28 01:23:34;;;;;;;60.27;29.67;;;;;;;-1.33;80.74;98411.86;124229;1105;104264;-70
2021/01/28 01:26:05;;;;;;;64.37;28.80;;;;;;;-1.34;81.10;98405.77;124257;1105;104456;-72
2021/01/28 01:28:32;;;;;;;53.17;25.03;;;;;;;-1.34;81.24;98408.37;124326;1105;104261;-71
2021/01/28 01:30:59;;;;;;;46.90;21.43;;;;;;;-1.37;81.84;98408.48;124335;1105;104258;-71
2021/01/28 01:33:29;;;;;;;59.83;28.83;;;;;;;-1.40;81.53;98405.98;124308;1105;104303;-71
2021/01/28 01:35:59;;;;;;;52.37;24.63;;;;;;;-1.39;80.71;98403.34;124432;1105;104647;-71
2021/01/28 01:38:26;;;;;;;53.23;27.07;;;;;;;-1.36;81.56;98404.97;124290;1105;104258;-72
2021/01/28 01:40:57;;;;;;;57.00;25.80;;;;;;;-1.36;81.14;98395.41;124283;1105;104261;-71
2021/01/28 01:43:27;;;;;;;58.13;28.90;;;;;;;-1.36;81.83;98398.02;124279;1105;104261;-72
2021/01/28 01:45:59;;;;;;;59.00;30.33;;;;;;;-1.34;82.05;98400.55;124229;1105;104185;-70
2021/01/28 01:48:42;;;;;;;60.43;28.47;;;;;;;-1.30;82.10;98393.48;124312;1105;104220;-71
2021/01/28 01:51:23;;;;;;;59.57;29.57;;;;;;;-1.28;81.97;98399.51;124260;1105;104348;-73
2021/01/28 01:53:50;;;;;;;62.10;29.70;;;;;;;-1.28;81.90;98397.73;124213;1105;104322;-72
2021/01/28 01:56:34;;;;;;;56.97;28.17;;;;;;;-1.31;81.24;98397.00;124375;1105;104272;-73
2021/01/28 01:59:11;;;;;;;59.33;29.00;;;;;;;-1.30;80.75;98402.16;124250;1105;104300;-72
2021/01/28 02:01:45;;;;;;;60.17;28.67;;;;;;;-1.32;80.71;98395.30;124227;1105;104217;-73
2021/01/28 02:04:18;;;;;;;61.23;29.50;;;;;;;-1.32;81.02;98390.08;124398;1105;104248;-71
2021/01/28 02:06:53;;;;;;;65.67;32.00;;;;;;;-1.31;80.76;98391.78;124245;1105;104162;-71
2021/01/28 02:09:21;;;;;;;55.53;27.53;;;;;;;-1.30;81.34;98396.09;124262;1105;104249;-73
2021/01/28 02:11:49;;;;;;;57.13;28.27;;;;;;;-1.31;81.79;98387.41;125328;1105;104275;-73
2021/01/28 02:14:20;;;;;;;58.73;30.33;;;;;;;-1.27;81.98;98385.55;124276;1105;104198;-72
2021/01/28 02:16:56;;;;;;;57.47;30.83;;;;;;;-1.24;81.31;98375.02;124093;1105;104300;-72
2021/01/28 02:19:23;;;;;;;54.33;26.33;;;;;;;-1.25;80.74;98374.14;124213;1105;104275;-71
2021/01/28 02:21:51;;;;;;;53.90;26.05;;;;;;;-1.29;81.10;98376.92;124235;1105;104162;-71
2021/01/28 02:24:35;;;;;;;61.97;31.53;;;;;;;-1.28;81.58;98386.46;124241;1106;104173;-73
2021/01/28 02:27:07;;;;;;;40.33;19.67;;;;;;;-1.27;81.71;98377.73;124264;1105;104256;-72
2021/01/28 02:29:36;;;;;;;56.43;28.50;;;;;;;-1.25;81.05;98378.53;124200;1105;104267;-73
2021/01/28 02:32:03;;;;;;;60.80;29.70;;;;;;;-1.22;81.84;98376.64;124245;1106;104644;-73
2021/01/28 02:34:34;;;;;;;63.40;30.97;;;;;;;-1.18;81.29;98371.31;124221;1105;104185;-72
2021/01/28 02:37:25;;;;;;;67.93;33.63;;;;;;;-1.15;81.33;98374.66;124259;1105;104351;-72
2021/01/28 02:39:52;;;;;;;55.53;27.90;;;;;;;-1.17;81.75;98363.41;124321;1105;104165;-71
2021/01/28 02:42:19;;;;;;;61.53;30.73;;;;;;;-1.20;80.96;98372.22;124312;1105;104252;-72
2021/01/28 02:44:46;;;;;;;64.50;31.97;;;;;;;-1.18;81.95;98372.16;124196;1106;104278;-73
2021/01/28 02:47:14;;;;;;;49.37;25.17;;;;;;;-1.20;81.61;98377.44;124226;1105;104185;-72
2021/01/28 02:49:42;;;;;;;65.93;31.27;;;;;;;-1.26;81.52;98374.21;125289;1105;104165;-72
2021/01/28 02:52:10;;;;;;;62.05;32.10;;;;;;;-1.24;80.84;98380.23;124291;1105;104162;-72
2021/01/28 02:54:48;;;;;;;55.77;28.03;;;;;;;-1.21;81.92;98378.34;124264;1105;104427;-73
2021/01/28 02:57:16;;;;;;;55.93;27.80;;;;;;;-1.21;81.46;98383.56;124311;1105;104608;-72
2021/01/28 02:59:42;;;;;;;62.67;32.30;;;;;;;-1.17;81.18;98370.41;124214;1105;104208;-73
2021/01/28 03:02:17;;;;;;;65.50;31.55;;;;;;;-1.17;81.72;98378.23;124763;1105;104211;-73
2021/01/28 03:04:45;;;;;;;66.80;34.80;;;;;;;-1.15;81.84;98372.05;124660;1105;103238;-74
2021/01/28 03:07:16;;;;;;;70.50;35.50;;;;;;;-1.11;81.95;98371.03;124101;1105;104318;-73
2021/01/28 03:09:43;;;;;;;67.03;35.27;;;;;;;-1.08;81.16;98362.25;124240;1105;104217;-74
2021/01/28 03:12:10;;;;;;;70.30;33.87;;;;;;;-1.07;81.34;98363.95;124305;1105;104248;-73
2021/01/28 03:14:37;;;;;;;66.62;32.93;;;;;;;-1.07;80.88;98358.73;124287;1105;104695;-74
2021/01/28 03:17:04;;;;;;;66.60;34.90;;;;;;;-1.09;81.23;98361.39;124190;1105;104281;-72
2021/01/28 03:19:32;;;;;;;66.33;34.13;;;;;;;-1.10;80.59;98351.85;124077;1105;104242;-73
2021/01/28 03:21:59;;;;;;;67.10;33.23;;;;;;;-1.11;80.95;98357.98;125353;1105;104236;-73
2021/01/28 03:24:26;;;;;;;64.37;33.37;;;;;;;-1.11;81.53;98352.76;124241;1105;104188;-73
2021/01/28 03:26:56;;;;;;;69.60;36.33;;;;;;;-1.09;81.02;98357.94;124239;1105;104191;-74
2021/01/28 03:29:27;;;;;;;78.27;36.23;;;;;;;-1.09;81.25;98353.55;124426;1105;104190;-72
2021/01/28 03:31:54;;;;;;;61.23;32.73;;;;;;;-1.11;81.10;98346.70;124291;1105;104188;-73
2021/01/28 03:34:22;;;;;;;69.07;35.83;;;;;;;-1.16;81.75;98349.46;124264;1105;104290;-71
2021/01/28 03:36:52;;;;;;;64.17;33.90;;;;;;;-1.19;80.62;98346.96;124249;1105;104268;-72
2021/01/28 03:39:19;;;;;;;61.10;28.70;;;;;;;-1.21;80.97;98336.59;124266;1105;104213;-72
2021/01/28 03:41:46;;;;;;;69.00;34.55;;;;;;;-1.23;81.10;98341.02;124262;1105;104229;-72
2021/01/28 03:44:13;;;;;;;64.72;33.98;;;;;;;-1.26;80.75;98337.68;124194;1105;104408;-72
2021/01/28 03:46:40;;;;;;;66.83;34.70;;;;;;;-1.25;81.10;98341.99;125535;1105;102126;-73
2021/01/28 03:49:10;;;;;;;59.63;33.10;;;;;;;-1.24;81.15;98334.09;124244;1105;104342;-72
2021/01/28 03:51:42;;;;;;;65.63;33.27;;;;;;;-1.23;80.57;98337.57;124309;1105;104185;-72
2021/01/28 03:54:10;;;;;;;67.70;34.50;;;;;;;-1.26;80.53;98332.46;124230;1105;104197;-73
2021/01/28 03:56:37;;;;;;;58.27;31.37;;;;;;;-1.25;81.26;98334.16;124516;1105;104179;-73
2021/01/28 03:59:04;;;;;;;59.70;30.60;;;;;;;-1.30;81.08;98326.48;124201;1105;104190;-74
2021/01/28 04:01:34;;;;;;;62.93;31.47;;;;;;;-1.32;81.59;98324.84;125388;1105;104290;-73
2021/01/28 04:04:02;;;;;;;61.93;32.17;;;;;;;-1.34;81.14;98330.11;124281;1105;104227;-73
2021/01/28 04:06:32;;;;;;;66.10;31.80;;;;;;;-1.37;81.03;98328.47;124320;1105;104169;-73
2021/01/28 04:09:00;;;;;;;66.42;34.63;;;;;;;-1.35;81.45;98331.87;124224;1105;104181;-72
2021/01/28 04:11:28;;;;;;;57.93;29.73;;;;;;;-1.33;81.11;98326.59;124208;1105;104281;-72
2021/01/28 04:13:56;;;;;;;69.87;35.07;;;;;;;-1.35;81.24;98329.27;124195;1105;104326;-72
2021/01/28 04:16:23;;;;;;;69.27;35.67;;;;;;;-1.35;80.90;98321.44;124221;1105;104632;-72
2021/01/28 04:18:51;;;;;;;63.70;32.23;;;;;;;-1.34;81.00;98327.50;124240;1105;104181;-73
2021/01/28 04:21:18;;;;;;;58.10;31.90;;;;;;;-1.36;81.46;98319.74;124259;1105;104274;-73
2021/01/28 04:23:45;;;;;;;67.22;32.48;;;;;;;-1.35;81.45;98320.58;124231;1105;104251;-73
2021/01/28 04:26:17;;;;;;;54.57;28.33;;;;;;;-1.37;81.11;98318.03;125048;1105;104177;-73
2021/01/28 04:28:44;;;;;;;62.13;31.10;;;;;;;-1.42;80.47;98319.09;124219;1105;104181;-73
2021/01/28 04:31:11;;;;;;;63.13;33.53;;;;;;;-1.42;81.65;98322.56;124247;1105;102361;-73
2021/01/28 04:33:39;;;;;;;60.47;28.67;;;;;;;-1.41;81.32;98323.41;126182;1105;104193;-70
2021/01/28 04:36:06;;;;;;;54.70;26.90;;;;;;;-1.41;81.42;98323.41;124429;1105;104163;-72
2021/01/28 04:38:34;;;;;;;61.23;31.97;;;;;;;-1.40;81.61;98317.28;124319;1105;104187;-73
2021/01/28 04:41:07;;;;;;;60.08;30.77;;;;;;;-1.36;80.52;98316.27;124296;1105;104316;-71
2021/01/28 04:43:34;;;;;;;59.90;33.08;;;;;;;-1.32;81.33;98309.20;124257;1105;104185;-72
2021/01/28 04:46:06;;;;;;;62.80;31.73;;;;;;;-1.29;81.12;98312.53;124215;1105;102793;-71
2021/01/28 04:48:34;;;;;;;61.47;31.07;;;;;;;-1.25;81.66;98315.89;124211;1105;104162;-71
2021/01/28 04:51:05;;;;;;;53.57;28.03;;;;;;;-1.26;81.42;98303.76;124274;1105;104303;-72
2021/01/28 04:53:46;;;;;;;54.83;27.50;;;;;;;-1.30;80.40;98305.61;124213;1105;104187;-73
2021/01/28 04:56:17;;;;;;;58.00;28.83;;;;;;;-1.37;80.35;98299.77;124954;1105;102076;-76
2021/01/28 04:58:44;;;;;;;61.20;31.83;;;;;;;-1.35;80.60;98303.18;125358;1105;102930;-73
2021/01/28 05:01:11;;;;;;;62.20;31.30;;;;;;;-1.33;81.37;98302.27;124801;1105;104230;-71
2021/01/28 05:03:45;;;;;;;63.53;28.97;;;;;;;-1.30;80.83;98300.39;123960;1105;104161;-72
2021/01/28 05:06:14;;;;;;;58.55;31.07;;;;;;;-1.33;81.43;98303.11;124195;1105;104261;-72
2021/01/28 05:08:41;;;;;;;62.80;30.67;;;;;;;-1.35;81.30;98297.96;124749;1105;104158;-72
2021/01/28 05:11:28;;;;;;;60.30;31.27;;;;;;;-1.34;81.09;98301.41;124296;1105;104158;-70
2021/01/28 05:14:21;;;;;;;60.50;30.27;;;;;;;-1.32;81.29;98296.15;124841;1105;104249;-72
2021/01/28 05:16:52;;;;;;;57.33;29.30;;;;;;;-1.32;80.88;98294.37;124988;1105;104175;-71
2021/01/28 05:19:50;;;;;;;69.20;34.07;;;;;;;-1.31;81.27;98287.41;124345;1105;104210;-71
2021/01/28 05:22:32;;;;;;;56.37;30.00;;;;;;;-1.30;81.00;98284.73;124397;1105;104191;-70
2021/01/28 05:25:13;;;;;;;60.63;30.00;;;;;;;-1.30;81.11;98295.17;124318;1105;104462;-71
2021/01/28 05:27:41;;;;;;;59.20;30.07;;;;;;;-1.32;81.28;98283.94;124196;1105;104201;-70
2021/01/28 05:30:36;;;;;;;62.20;32.60;;;;;;;-1.31;80.42;98285.64;124477;1105;104294;-70
2021/01/28 05:33:29;;;;;;;59.87;30.60;;;;;;;-1.30;80.81;98289.12;124331;1104;104185;-69
2021/01/28 05:36:25;;;;;;;55.00;26.67;;;;;;;-1.32;80.96;98291.77;124275;1105;104253;-72
2021/01/28 05:38:56;;;;;;;65.87;33.83;;;;;;;-1.32;81.48;98296.98;124292;1105;104158;-73
2021/01/28 05:41:29;;;;;;;64.50;32.17;;;;;;;-1.29;81.29;98286.44;124220;1105;104315;-72
2021/01/28 05:44:18;;;;;;;65.10;32.85;;;;;;;-1.27;80.38;98289.84;123989;1105;104292;-72
2021/01/28 05:47:02;;;;;;;84.47;40.97;;;;;;;-1.26;80.79;98286.33;124314;1105;104213;-74
2021/01/28 05:49:32;;;;;;;89.97;43.53;;;;;;;-1.23;80.36;98282.77;124220;1105;104242;-72
2021/01/28 05:52:19;;;;;;;85.30;41.63;;;;;;;-1.19;81.40;98281.72;124294;1105;104798;-71
2021/01/28 05:55:04;;;;;;;77.67;37.30;;;;;;;-1.17;81.00;98290.34;124015;1105;104217;-72
2021/01/28 05:57:41;;;;;;;69.83;36.63;;;;;;;-1.13;81.25;98293.70;124293;1105;104169;-72
2021/01/28 06:00:14;;;;;;;66.17;36.10;;;;;;;-1.10;81.36;98283.16;125288;1104;103141;-72
2021/01/28 06:02:48;;;;;;;71.07;35.80;;;;;;;-1.11;80.33;98286.67;124265;1105;104257;-71
2021/01/28 06:05:29;;;;;;;66.67;36.53;;;;;;;-1.11;80.54;98286.67;126354;1104;104008;-72
2021/01/28 06:08:29;;;;;;;69.67;35.43;;;;;;;-1.13;80.31;98285.87;124215;1105;104373;-71
2021/01/28 06:11:41;;;;;;;64.90;35.67;;;;;;;-1.14;80.91;98281.56;124018;1105;104399;-71
2021/01/28 06:14:29;;;;;;;76.57;39.57;;;;;;;-1.13;81.16;98275.44;124254;1105;104235;-71
2021/01/28 06:17:04;;;;;;;78.80;39.33;;;;;;;-1.11;80.58;98277.06;124262;1105;104156;-72
2021/01/28 06:19:35;;;;;;;88.57;38.77;;;;;;;-1.17;81.22;98268.63;124158;1105;104316;-71
2021/01/28 06:22:09;;;;;;;79.13;38.53;;;;;;;-1.20;80.74;98270.44;124263;1105;104165;-71
2021/01/28 06:24:49;;;;;;;73.20;36.90;;;;;;;-1.20;80.71;98270.44;124041;1105;104347;-72
2021/01/28 06:27:34;;;;;;;76.67;39.80;;;;;;;-1.18;81.14;98275.59;124302;1105;104220;-72
2021/01/28 06:30:28;;;;;;;81.17;39.63;;;;;;;-1.18;80.81;98269.53;124309;1105;104255;-73
2021/01/28 06:33:24;;;;;;;72.97;40.28;;;;;;;-1.18;80.39;98266.92;124318;1105;104264;-71
2021/01/28 06:36:16;;;;;;;74.63;39.40;;;;;;;-1.16;81.22;98262.50;124270;1105;104258;-73
2021/01/28 06:39:19;;;;;;;80.47;41.03;;;;;;;-1.13;80.23;98257.17;124036;1105;104245;-72
2021/01/28 06:42:01;;;;;;;69.77;37.73;;;;;;;-1.11;80.80;98265.79;124230;1105;104274;-72
2021/01/28 06:45:13;;;;;;;73.87;37.87;;;;;;;-1.11;80.38;98263.19;124308;1105;104450;-71
2021/01/28 06:48:07;;;;;;;79.67;39.60;;;;;;;-1.11;80.74;98271.84;123992;1109;104358;-72
2021/01/28 06:50:53;;;;;;;85.95;42.10;;;;;;;-1.11;80.03;98265.79;124198;1106;104341;-72
2021/01/28 06:53:44;;;;;;;93.40;45.40;;;;;;;-1.14;80.99;98260.69;124015;1105;104287;-72
2021/01/28 06:56:46;;;;;;;92.17;44.73;;;;;;;-1.12;80.13;98251.88;124147;1105;104210;-73
2021/01/28 06:59:30;;;;;;;77.70;38.03;;;;;;;-1.10;80.31;98251.83;124058;1105;104184;-73
2021/01/28 07:02:20;;;;;;;79.77;35.83;;;;;;;-1.10;80.02;98250.05;124046;1105;104421;-73
2021/01/28 07:05:14;;;;;;;66.67;31.93;;;;;;;-1.09;80.51;98253.53;124041;1106;104335;-73
2021/01/28 07:08:07;;;;;;;55.60;29.98;;;;;;;-1.08;79.88;98242.19;124100;1105;104185;-74
2021/01/28 07:10:41;;;;;;;53.03;28.37;;;;;;;-1.05;80.35;98245.52;124256;1105;104185;-74
2021/01/28 07:13:35;;;;;;;54.23;29.60;;;;;;;-1.05;80.21;98250.73;124342;1105;104268;-73
2021/01/28 07:16:30;;;;;;;65.50;34.35;;;;;;;-1.05;80.10;98242.91;124229;1105;104242;-73
2021/01/28 07:19:11;;;;;;;66.60;35.07;;;;;;;-1.01;80.14;98240.17;124235;1105;104181;-72
2021/01/28 07:21:45;;;;;;;67.60;33.57;;;;;;;-0.99;80.98;98246.19;124031;1105;104219;-74
2021/01/28 07:24:34;;;;;;;63.07;33.97;;;;;;;-0.99;80.88;98241.80;124039;1106;104265;-73
2021/01/28 07:27:06;;;;;;;64.27;33.10;;;;;;;-0.94;80.82;98246.87;124279;1105;104153;-72
2021/01/28 07:29:54;;;;;;;59.00;32.30;;;;;;;-0.90;80.19;98241.45;124293;1105;104185;-73
2021/01/28 07:32:23;;;;;;;53.53;31.40;;;;;;;-0.84;80.75;98236.90;124043;1105;104268;-75
2021/01/28 07:35:22;;;;;;;58.93;32.80;;;;;;;-0.81;80.96;98242.84;124294;1105;104242;-73
2021/01/28 07:37:54;;;;;;;58.37;30.93;;;;;;;-0.75;80.39;98236.55;124033;1106;104960;-73
2021/01/28 07:41:14;;;;;;;54.23;31.83;;;;;;;-0.71;80.46;98237.26;124035;1105;104159;-72
2021/01/28 07:43:47;;;;;;;60.27;32.97;;;;;;;-0.68;80.28;98247.58;123968;1106;104223;-75
2021/01/28 07:46:26;;;;;;;65.40;33.10;;;;;;;-0.66;79.91;98237.92;124176;1105;104354;-73
2021/01/28 07:49:17;;;;;;;80.77;37.93;;;;;;;-0.65;80.22;98232.66;124285;1105;104224;-73
2021/01/28 07:51:51;;;;;;;69.67;37.10;;;;;;;-0.64;80.10;98225.66;124290;1105;104259;-74
2021/01/28 07:54:37;;;;;;;61.50;32.80;;;;;;;-0.64;79.80;98226.52;124306;1105;104210;-73
2021/01/28 07:57:47;;;;;;;65.57;34.80;;;;;;;-0.60;80.12;98237.69;124011;1106;104405;-73
2021/01/28 08:00:20;;;;;;;56.27;29.67;;;;;;;-0.60;79.96;98250.75;124388;1105;104236;-73
2021/01/28 08:03:00;;;;;;;;;;;;;;;-0.63;79.94;98241.28;124317;1105;104264;-74
2021/01/28 08:05:30;;;;;;;66.17;33.23;;;;;;;-0.66;79.77;98249.24;124340;1105;104159;-74
2021/01/28 08:08:13;;;;;;;65.50;32.30;;;;;;;-0.66;79.97;98250.98;124315;1105;104168;-73
2021/01/28 08:10:43;;;;;;;57.03;31.13;;;;;;;-0.66;79.96;98244.02;124313;1105;104130;-73
2021/01/28 08:13:29;;;;;;;61.37;33.13;;;;;;;-0.62;79.73;98248.20;124261;1105;104223;-73
2021/01/28 08:16:07;;;;;;;53.40;30.17;;;;;;;-0.61;79.60;98247.27;124322;1105;104245;-74
2021/01/28 08:18:43;;;;;;;53.50;30.33;;;;;;;-0.60;79.91;98246.36;124261;1106;104191;-73
2021/01/28 08:21:26;;;;;;;57.97;31.20;;;;;;;-0.60;79.56;98246.36;124331;1105;104269;-74
2021/01/28 08:23:53;;;;;;;62.30;32.83;;;;;;;-0.58;79.61;98235.86;124190;1105;104313;-73
2021/01/28 08:26:31;;;;;;;60.57;32.57;;;;;;;-0.55;80.01;98245.32;124046;1105;104656;-75
2021/01/28 08:29:21;;;;;;;57.37;29.10;;;;;;;-0.53;80.27;98241.75;124299;1105;104165;-73
2021/01/28 08:32:01;;;;;;;55.97;27.70;;;;;;;-0.53;80.32;98244.36;124034;1105;104232;-72
2021/01/28 08:34:33;;;;;;;54.63;30.13;;;;;;;-0.49;79.71;98239.85;124339;1105;104182;-73
2021/01/28 08:37:12;;;;;;;51.53;28.03;;;;;;;-0.49;80.30;98245.94;124330;1105;104307;-73
2021/01/28 08:39:39;;;;;;;48.60;26.93;;;;;;;-0.49;79.73;98235.49;124260;1105;104185;-73
2021/01/28 08:42:17;;;;;;;47.07;25.23;;;;;;;-0.47;80.08;98238.89;124281;1105;104182;-72
2021/01/28 08:44:48;;;;;;;44.40;24.33;;;;;;;-0.48;80.12;98228.48;124284;1105;104251;-73
2021/01/28 08:47:22;;;;;;;47.60;25.17;;;;;;;-0.48;79.77;98231.10;124324;1105;104184;-73
2021/01/28 08:50:17;;;;;;;46.03;24.03;;;;;;;-0.49;79.74;98230.27;124262;1105;104255;-73
2021/01/28 08:52:49;;;;;;;42.73;22.87;;;;;;;-0.48;79.69;98229.35;124007;1105;104163;-73
2021/01/28 08:55:29;;;;;;;43.80;23.63;;;;;;;-0.46;79.96;98224.05;124020;1105;104896;-72
2021/01/28 08:58:18;;;;;;;44.38;22.48;;;;;;;-0.42;79.68;98217.78;124280;1105;104392;-73
2021/01/28 09:00:57;;;;;;;43.00;23.57;;;;;;;-0.35;80.30;98216.63;124367;1105;104178;-73
2021/01/28 09:03:56;;;;;;;43.23;23.23;;;;;;;-0.23;80.43;98212.64;124344;1105;104274;-73
2021/01/28 09:06:26;;;;;;;41.55;22.20;;;;;;;-0.03;80.12;98203.94;124263;1106;104255;-74
2021/01/28 09:09:06;;;;;;;46.92;24.37;;;;;;;0.20;80.44;98207.33;124046;1105;104184;-73
2021/01/28 09:11:34;;;;;;;48.00;25.40;;;;;;;0.46;80.25;98201.81;124156;1103;104258;-74
2021/01/28 09:14:02;;;;;;;57.07;28.70;;;;;;;0.70;80.24;98197.23;124255;1106;104249;-74
2021/01/28 09:16:30;;;;;;;48.10;26.07;;;;;;;1.17;79.86;98188.06;123914;1105;104913;-74
2021/01/28 09:19:09;;;;;;;46.83;25.37;;;;;;;1.34;78.98;98179.37;124230;1105;104269;-74
2021/01/28 09:21:41;;;;;;;46.27;24.20;;;;;;;1.49;79.41;98183.83;124196;1105;104188;-74
2021/01/28 09:24:30;;;;;;;47.23;23.40;;;;;;;1.80;79.51;98185.86;124268;1105;104251;-73
2021/01/28 09:27:35;;;;;;;50.90;28.93;;;;;;;2.23;79.94;98175.76;124310;1105;104264;-74
2021/01/28 09:30:34;;;;;;;48.23;28.00;;;;;;;2.93;79.92;98164.09;124240;1105;104424;-74
2021/01/28 09:33:20;;;;;;;45.43;26.73;;;;;;;3.44;78.98;98155.98;124181;1105;104185;-75
2021/01/28 09:36:03;;;;;;;47.53;25.13;;;;;;;3.96;79.03;98143.27;124225;1105;104220;-74
2021/01/28 09:38:30;;;;;;;37.57;19.27;;;;;;;4.26;78.16;98145.83;124216;1105;104277;-75
2021/01/28 09:41:35;;;;;;;40.60;22.13;;;;;;;4.43;78.16;98151.84;124300;1105;104243;-74
2021/01/28 09:44:23;;;;;;;37.80;19.17;;;;;;;4.69;78.33;98150.19;124089;1105;104325;-76
2021/01/28 18:14:45;;;;;;;26.33;12.07;;;;;;;-0.78;72.21;97463.77;124048;1109;104354;-76
2021/01/28 18:17:12;;;;;;;26.77;11.60;;;;;;;-0.78;72.57;97469.81;123944;1109;104182;-74
2021/01/28 18:19:40;;;;;;;27.37;11.87;;;;;;;-0.76;72.39;97467.97;123927;1109;104268;-75
2021/01/28 18:22:07;;;;;;;26.03;12.20;;;;;;;-0.72;71.92;97460.83;123938;1109;104226;-73
2021/01/28 18:24:34;;;;;;;32.20;13.73;;;;;;;-0.73;72.61;97451.31;123993;1109;104191;-74
2021/01/28 18:27:02;;;;;;;25.03;11.47;;;;;;;-0.76;72.36;97459.30;123961;1109;104194;-76
2021/01/28 18:29:29;;;;;;;25.77;11.45;;;;;;;-0.82;71.79;97439.59;123900;1109;104254;-75
2021/01/28 18:31:58;;;;;;;28.63;13.33;;;;;;;-0.86;71.87;97435.45;123979;1109;104235;-76
2021/01/28 18:34:26;;;;;;;26.33;10.53;;;;;;;-0.86;72.43;97443.29;123980;1109;104252;-75
2021/01/28 18:36:53;;;;;;;29.47;13.53;;;;;;;-0.84;71.75;97441.44;123951;1109;104181;-74
2021/01/28 18:39:21;;;;;;;27.80;13.00;;;;;;;-0.80;72.43;97442.11;124021;1109;104319;-74
2021/01/28 18:41:50;;;;;;;32.00;14.63;;;;;;;-0.78;72.59;97440.27;123974;1109;104159;-75
2021/01/28 18:44:18;;;;;;;29.60;12.93;;;;;;;-0.77;71.94;97442.78;123971;1109;104005;-74
2021/01/28 18:46:46;;;;;;;28.23;13.97;;;;;;;-0.72;72.33;97442.55;123964;1106;104175;-75
2021/01/28 18:49:13;;;;;;;25.73;12.53;;;;;;;-0.67;72.25;97431.85;123930;1106;104268;-73
2021/01/28 18:51:42;;;;;;;28.33;12.43;;;;;;;-0.65;71.92;97436.09;123849;1109;104309;-74
2021/01/28 18:54:10;;;;;;;26.83;11.63;;;;;;;-0.65;72.29;97430.86;123844;1109;104193;-74
2021/01/28 18:56:37;;;;;;;30.47;13.17;;;;;;;-0.62;72.30;97427.23;123856;1109;104267;-76
2021/01/28 18:59:04;;;;;;;26.90;13.33;;;;;;;-0.58;72.26;97425.28;123824;1108;104219;-76
2021/01/28 19:01:31;;;;;;;29.87;13.00;;;;;;;-0.55;72.58;97419.89;123828;1109;104271;-76
2021/01/28 19:04:00;;;;;;;24.53;10.10;;;;;;;-0.54;72.62;97413.75;123905;1109;104613;-75
2021/01/28 19:06:29;;;;;;;28.00;13.40;;;;;;;-0.56;72.16;97416.45;123842;1109;104136;-75
2021/01/28 19:08:56;;;;;;;29.10;12.87;;;;;;;-0.54;72.01;97413.75;124060;1109;104734;-75
2021/01/28 19:11:25;;;;;;;28.87;13.30;;;;;;;-0.51;72.41;97411.83;123919;1109;104271;-75
2021/01/28 19:13:53;;;;;;;29.10;13.60;;;;;;;-0.50;72.17;97415.27;124055;1109;104390;-76
2021/01/28 19:16:21;;;;;;;24.47;10.10;;;;;;;-0.47;72.30;97412.49;123944;1108;104418;-76
2021/01/28 19:18:48;;;;;;;29.40;13.57;;;;;;;-0.47;72.39;97404.66;123890;1109;104259;-75
2021/01/28 19:21:17;;;;;;;29.77;13.43;;;;;;;-0.47;72.28;97405.52;124003;1108;104182;-72
2021/01/28 19:23:44;;;;;;;28.43;12.27;;;;;;;-0.47;72.77;97400.30;123959;1108;104194;-75
2021/01/28 19:26:14;;;;;;;26.97;11.73;;;;;;;-0.47;72.82;97400.30;123960;1109;104201;-75
2021/01/28 19:28:41;;;;;;;26.40;12.53;;;;;;;-0.48;72.23;97398.61;124004;1109;104623;-74
2021/01/28 19:31:08;;;;;;;28.47;12.47;;;;;;;-0.48;72.15;97393.38;123919;1109;104162;-75
2021/01/28 19:33:35;;;;;;;27.77;13.47;;;;;;;-0.49;72.38;97393.45;123961;1109;104210;-74
2021/01/28 19:36:07;;;;;;;27.80;14.43;;;;;;;-0.50;72.28;97405.68;123979;1106;104169;-75
2021/01/28 19:38:34;;;;;;;28.70;13.47;;;;;;;-0.51;72.65;97397.91;124018;1109;104169;-75
2021/01/28 19:41:03;;;;;;;27.07;11.97;;;;;;;-0.52;72.92;97401.45;123941;1108;104309;-75
2021/01/28 19:43:35;;;;;;;;;;;;;;;-0.54;72.38;97395.47;123995;1109;104274;-75
2021/01/28 19:46:05;;;;;;;27.57;12.97;;;;;;;-0.54;72.48;97388.48;124013;1107;104294;-74
2021/01/28 19:48:34;;;;;;;28.80;14.35;;;;;;;-0.51;73.08;97395.30;123970;1109;104239;-76
2021/01/28 19:51:01;;;;;;;31.25;15.35;;;;;;;-0.52;73.01;97391.86;124005;1109;104701;-73
2021/01/28 19:53:28;;;;;;;28.97;11.90;;;;;;;-0.52;73.04;97391.86;123942;1109;104328;-75
2021/01/28 19:55:55;;;;;;;31.00;14.27;;;;;;;-0.55;72.40;97386.80;124111;1106;104284;-75
2021/01/28 19:58:22;;;;;;;25.97;12.43;;;;;;;-0.57;72.88;97383.43;124114;1109;104322;-76
2021/01/28 20:00:49;;;;;;;31.70;14.20;;;;;;;-0.56;72.70;97389.48;123950;1109;104255;-74
2021/01/28 20:03:20;;;;;;;28.07;13.63;;;;;;;-0.58;72.86;97386.11;123950;1109;104185;-77